sensor_id;sensor_type;location;lat;lon;timestamp;temperature;humidity
9837;DHT22;4957;51.412;6.724;2024-03-22T00:02:08;13.20;99.90
9837;DHT22;4957;51.412;6.724;2024-03-22T00:04:37;13.20;99.90
9837;DHT22;4957;51.412;6.724;2024-03-22T00:07:03;13.20;99.90
9837;DHT22;4957;51.412;6.724;2024-03-22T00:09:29;13.20;99.90
9837;DHT22;4957;51.412;6.724;2024-03-22T00:11:55;13.20;99.90
9837;DHT22;4957;51.412;6.724;2024-03-22T00:14:21;13.20;99.90
9837;DHT22;4957;51.412;6.724;2024-03-22T00:16:46;13.20;99.90
9837;DHT22;4957;51.412;6.724;2024-03-22T00:19:12;13.20;99.90
9837;DHT22;4957;51.412;6.724;2024-03-22T00:21:38;13.20;99.90
9837;DHT22;4957;51.412;6.724;2024-03-22T00:24:03;13.20;99.90
9837;DHT22;4957;51.412;6.724;2024-03-22T00:26:29;13.20;99.90
9837;DHT22;4957;51.412;6.724;2024-03-22T00:28:55;13.20;99.90
9837;DHT22;4957;51.412;6.724;2024-03-22T00:31:23;13.20;99.90
9837;DHT22;4957;51.412;6.724;2024-03-22T00:33:49;13.20;99.90
9837;DHT22;4957;51.412;6.724;2024-03-22T00:36:15;13.20;99.90
9837;DHT22;4957;51.412;6.724;2024-03-22T00:38:40;13.20;99.90
9837;DHT22;4957;51.412;6.724;2024-03-22T00:41:06;13.20;99.90
9837;DHT22;4957;51.412;6.724;2024-03-22T00:43:32;13.20;99.90
9837;DHT22;4957;51.412;6.724;2024-03-22T00:45:58;13.20;99.90
9837;DHT22;4957;51.412;6.724;2024-03-22T00:48:24;13.20;99.90
9837;DHT22;4957;51.412;6.724;2024-03-22T00:50:49;13.20;99.90
9837;DHT22;4957;51.412;6.724;2024-03-22T00:53:15;13.20;99.90
9837;DHT22;4957;51.412;6.724;2024-03-22T00:55:42;13.20;99.90
9837;DHT22;4957;51.412;6.724;2024-03-22T00:58:07;13.20;99.90
9837;DHT22;4957;51.412;6.724;2024-03-22T01:00:33;13.20;99.90
9837;DHT22;4957;51.412;6.724;2024-03-22T01:02:59;13.20;99.90
9837;DHT22;4957;51.412;6.724;2024-03-22T01:05:25;13.20;99.90
9837;DHT22;4957;51.412;6.724;2024-03-22T01:07:51;13.20;99.90
9837;DHT22;4957;51.412;6.724;2024-03-22T01:10:17;13.20;99.90
9837;DHT22;4957;51.412;6.724;2024-03-22T01:12:44;13.20;99.90
9837;DHT22;4957;51.412;6.724;2024-03-22T01:15:09;13.20;99.90
9837;DHT22;4957;51.412;6.724;2024-03-22T01:17:35;13.20;99.90
9837;DHT22;4957;51.412;6.724;2024-03-22T01:20:01;13.20;99.90
9837;DHT22;4957;51.412;6.724;2024-03-22T01:22:27;13.20;99.90
9837;DHT22;4957;51.412;6.724;2024-03-22T01:24:53;13.20;99.90
9837;DHT22;4957;51.412;6.724;2024-03-22T01:27:19;13.20;99.90
9837;DHT22;4957;51.412;6.724;2024-03-22T01:29:46;13.20;99.90
9837;DHT22;4957;51.412;6.724;2024-03-22T01:32:12;13.20;99.90
9837;DHT22;4957;51.412;6.724;2024-03-22T01:34:38;13.20;99.90
9837;DHT22;4957;51.412;6.724;2024-03-22T01:37:04;13.20;99.90
9837;DHT22;4957;51.412;6.724;2024-03-22T01:39:30;13.20;99.90
9837;DHT22;4957;51.412;6.724;2024-03-22T01:41:55;13.20;99.90
9837;DHT22;4957;51.412;6.724;2024-03-22T01:44:27;13.20;99.90
9837;DHT22;4957;51.412;6.724;2024-03-22T01:46:54;13.20;99.90
9837;DHT22;4957;51.412;6.724;2024-03-22T01:49:20;13.20;99.90
9837;DHT22;4957;51.412;6.724;2024-03-22T01:51:46;13.20;99.90
9837;DHT22;4957;51.412;6.724;2024-03-22T01:54:12;13.20;99.90
9837;DHT22;4957;51.412;6.724;2024-03-22T01:56:38;13.20;99.90
9837;DHT22;4957;51.412;6.724;2024-03-22T01:59:05;13.20;99.90
9837;DHT22;4957;51.412;6.724;2024-03-22T02:01:32;13.20;99.90
9837;DHT22;4957;51.412;6.724;2024-03-22T02:03:58;13.20;99.90
9837;DHT22;4957;51.412;6.724;2024-03-22T02:06:23;13.20;99.90
9837;DHT22;4957;51.412;6.724;2024-03-22T02:08:49;13.20;99.90
9837;DHT22;4957;51.412;6.724;2024-03-22T02:11:15;13.20;99.90
9837;DHT22;4957;51.412;6.724;2024-03-22T02:13:41;13.20;99.90
9837;DHT22;4957;51.412;6.724;2024-03-22T02:16:08;13.20;99.90
9837;DHT22;4957;51.412;6.724;2024-03-22T02:18:34;13.20;99.90
9837;DHT22;4957;51.412;6.724;2024-03-22T02:21:00;13.20;99.90
9837;DHT22;4957;51.412;6.724;2024-03-22T02:23:36;13.20;99.90
9837;DHT22;4957;51.412;6.724;2024-03-22T02:26:03;13.20;99.90
9837;DHT22;4957;51.412;6.724;2024-03-22T02:28:30;13.20;99.90
9837;DHT22;4957;51.412;6.724;2024-03-22T02:30:57;13.20;99.90
9837;DHT22;4957;51.412;6.724;2024-03-22T02:33:23;13.10;99.90
9837;DHT22;4957;51.412;6.724;2024-03-22T02:35:50;13.10;99.90
9837;DHT22;4957;51.412;6.724;2024-03-22T02:38:16;13.10;99.90
9837;DHT22;4957;51.412;6.724;2024-03-22T02:40:43;13.10;99.90
9837;DHT22;4957;51.412;6.724;2024-03-22T02:43:09;13.10;99.90
9837;DHT22;4957;51.412;6.724;2024-03-22T02:45:35;13.10;99.90
9837;DHT22;4957;51.412;6.724;2024-03-22T02:48:00;13.10;99.90
9837;DHT22;4957;51.412;6.724;2024-03-22T02:50:26;13.10;99.90
9837;DHT22;4957;51.412;6.724;2024-03-22T02:52:52;13.10;99.90
9837;DHT22;4957;51.412;6.724;2024-03-22T02:55:18;13.10;99.90
9837;DHT22;4957;51.412;6.724;2024-03-22T02:57:53;13.10;99.90
9837;DHT22;4957;51.412;6.724;2024-03-22T03:00:40;13.10;99.90
9837;DHT22;4957;51.412;6.724;2024-03-22T03:03:06;13.10;99.90
9837;DHT22;4957;51.412;6.724;2024-03-22T03:05:32;13.10;99.90
9837;DHT22;4957;51.412;6.724;2024-03-22T03:07:58;13.10;99.90
9837;DHT22;4957;51.412;6.724;2024-03-22T03:10:24;13.10;99.90
9837;DHT22;4957;51.412;6.724;2024-03-22T03:12:50;13.10;99.90
9837;DHT22;4957;51.412;6.724;2024-03-22T03:15:16;13.10;99.90
9837;DHT22;4957;51.412;6.724;2024-03-22T03:17:42;13.10;99.90
9837;DHT22;4957;51.412;6.724;2024-03-22T03:20:08;13.00;99.90
9837;DHT22;4957;51.412;6.724;2024-03-22T03:22:39;13.00;99.90
9837;DHT22;4957;51.412;6.724;2024-03-22T03:25:05;13.00;99.90
9837;DHT22;4957;51.412;6.724;2024-03-22T03:27:31;13.00;99.90
9837;DHT22;4957;51.412;6.724;2024-03-22T03:29:56;13.00;99.90
9837;DHT22;4957;51.412;6.724;2024-03-22T03:32:26;13.00;99.90
9837;DHT22;4957;51.412;6.724;2024-03-22T03:34:52;13.00;99.90
9837;DHT22;4957;51.412;6.724;2024-03-22T03:37:17;13.00;99.90
9837;DHT22;4957;51.412;6.724;2024-03-22T03:39:43;13.00;99.90
9837;DHT22;4957;51.412;6.724;2024-03-22T03:42:09;12.90;99.90
9837;DHT22;4957;51.412;6.724;2024-03-22T03:44:35;12.90;99.90
9837;DHT22;4957;51.412;6.724;2024-03-22T03:47:01;12.90;99.90
9837;DHT22;4957;51.412;6.724;2024-03-22T03:49:27;12.90;99.90
9837;DHT22;4957;51.412;6.724;2024-03-22T03:51:53;12.90;99.90
9837;DHT22;4957;51.412;6.724;2024-03-22T03:54:19;12.80;99.90
9837;DHT22;4957;51.412;6.724;2024-03-22T03:56:44;12.80;99.90
9837;DHT22;4957;51.412;6.724;2024-03-22T03:59:10;12.80;99.90
9837;DHT22;4957;51.412;6.724;2024-03-22T04:01:36;12.80;99.90
9837;DHT22;4957;51.412;6.724;2024-03-22T04:04:03;12.80;99.90
9837;DHT22;4957;51.412;6.724;2024-03-22T04:06:29;12.80;99.90
9837;DHT22;4957;51.412;6.724;2024-03-22T04:08:54;12.80;99.90
9837;DHT22;4957;51.412;6.724;2024-03-22T04:11:20;12.80;99.90
9837;DHT22;4957;51.412;6.724;2024-03-22T04:13:46;12.80;99.90
9837;DHT22;4957;51.412;6.724;2024-03-22T04:16:13;12.80;99.90
9837;DHT22;4957;51.412;6.724;2024-03-22T04:18:39;12.80;99.90
9837;DHT22;4957;51.412;6.724;2024-03-22T04:21:05;12.70;99.90
9837;DHT22;4957;51.412;6.724;2024-03-22T04:23:30;12.70;99.90
9837;DHT22;4957;51.412;6.724;2024-03-22T04:26:00;12.70;99.90
9837;DHT22;4957;51.412;6.724;2024-03-22T04:28:30;12.70;99.90
9837;DHT22;4957;51.412;6.724;2024-03-22T04:31:00;12.70;99.90
9837;DHT22;4957;51.412;6.724;2024-03-22T04:33:26;12.70;99.90
9837;DHT22;4957;51.412;6.724;2024-03-22T04:35:56;12.70;99.90
9837;DHT22;4957;51.412;6.724;2024-03-22T04:38:22;12.70;99.90
9837;DHT22;4957;51.412;6.724;2024-03-22T04:40:48;12.70;99.90
9837;DHT22;4957;51.412;6.724;2024-03-22T04:43:15;12.70;99.90
9837;DHT22;4957;51.412;6.724;2024-03-22T04:45:45;12.70;99.90
9837;DHT22;4957;51.412;6.724;2024-03-22T04:48:14;12.70;99.90
9837;DHT22;4957;51.412;6.724;2024-03-22T04:50:39;12.70;99.90
9837;DHT22;4957;51.412;6.724;2024-03-22T04:53:05;12.70;99.90
9837;DHT22;4957;51.412;6.724;2024-03-22T04:55:32;12.70;99.90
9837;DHT22;4957;51.412;6.724;2024-03-22T04:57:58;12.70;99.90
9837;DHT22;4957;51.412;6.724;2024-03-22T05:00:24;12.70;99.90
9837;DHT22;4957;51.412;6.724;2024-03-22T05:02:51;12.70;99.90
9837;DHT22;4957;51.412;6.724;2024-03-22T05:05:18;12.70;99.90
9837;DHT22;4957;51.412;6.724;2024-03-22T05:07:43;12.70;99.90
9837;DHT22;4957;51.412;6.724;2024-03-22T05:10:09;12.70;99.90
9837;DHT22;4957;51.412;6.724;2024-03-22T05:12:35;12.70;99.90
9837;DHT22;4957;51.412;6.724;2024-03-22T05:15:02;12.70;99.90
9837;DHT22;4957;51.412;6.724;2024-03-22T05:17:29;12.60;99.90
9837;DHT22;4957;51.412;6.724;2024-03-22T05:20:00;12.70;99.90
9837;DHT22;4957;51.412;6.724;2024-03-22T05:22:25;12.70;99.90
9837;DHT22;4957;51.412;6.724;2024-03-22T05:24:51;12.60;99.90
9837;DHT22;4957;51.412;6.724;2024-03-22T05:27:17;12.70;99.90
9837;DHT22;4957;51.412;6.724;2024-03-22T05:29:43;12.60;99.90
9837;DHT22;4957;51.412;6.724;2024-03-22T05:32:10;12.70;99.90
9837;DHT22;4957;51.412;6.724;2024-03-22T05:34:36;12.60;99.90
9837;DHT22;4957;51.412;6.724;2024-03-22T05:37:02;12.60;99.90
9837;DHT22;4957;51.412;6.724;2024-03-22T05:39:28;12.60;99.90
9837;DHT22;4957;51.412;6.724;2024-03-22T05:41:54;12.60;99.90
9837;DHT22;4957;51.412;6.724;2024-03-22T05:44:22;12.60;99.90
9837;DHT22;4957;51.412;6.724;2024-03-22T05:46:48;12.50;99.90
9837;DHT22;4957;51.412;6.724;2024-03-22T05:49:13;12.50;99.90
9837;DHT22;4957;51.412;6.724;2024-03-22T05:51:39;12.60;99.90
9837;DHT22;4957;51.412;6.724;2024-03-22T05:54:05;12.60;99.90
9837;DHT22;4957;51.412;6.724;2024-03-22T05:56:32;12.60;99.90
9837;DHT22;4957;51.412;6.724;2024-03-22T05:58:57;12.60;99.90
9837;DHT22;4957;51.412;6.724;2024-03-22T06:01:23;12.60;99.90
9837;DHT22;4957;51.412;6.724;2024-03-22T06:03:49;12.60;99.90
9837;DHT22;4957;51.412;6.724;2024-03-22T06:06:14;12.60;99.90
9837;DHT22;4957;51.412;6.724;2024-03-22T06:08:41;12.60;99.90
9837;DHT22;4957;51.412;6.724;2024-03-22T06:11:09;12.60;99.90
9837;DHT22;4957;51.412;6.724;2024-03-22T06:13:35;12.60;99.90
9837;DHT22;4957;51.412;6.724;2024-03-22T06:16:02;12.60;99.90
9837;DHT22;4957;51.412;6.724;2024-03-22T06:18:27;12.60;99.90
9837;DHT22;4957;51.412;6.724;2024-03-22T06:20:53;12.60;99.90
9837;DHT22;4957;51.412;6.724;2024-03-22T06:23:21;12.70;99.90
9837;DHT22;4957;51.412;6.724;2024-03-22T06:25:54;12.70;99.90
9837;DHT22;4957;51.412;6.724;2024-03-22T06:28:20;12.70;99.90
9837;DHT22;4957;51.412;6.724;2024-03-22T06:30:46;12.70;99.90
9837;DHT22;4957;51.412;6.724;2024-03-22T06:33:12;12.70;99.90
9837;DHT22;4957;51.412;6.724;2024-03-22T06:35:40;12.70;99.90
9837;DHT22;4957;51.412;6.724;2024-03-22T06:38:06;12.70;99.90
9837;DHT22;4957;51.412;6.724;2024-03-22T06:40:32;12.80;99.90
9837;DHT22;4957;51.412;6.724;2024-03-22T06:42:58;12.80;99.90
9837;DHT22;4957;51.412;6.724;2024-03-22T06:45:24;12.80;99.90
9837;DHT22;4957;51.412;6.724;2024-03-22T06:47:49;12.80;99.90
9837;DHT22;4957;51.412;6.724;2024-03-22T06:50:15;12.90;99.90
9837;DHT22;4957;51.412;6.724;2024-03-22T06:52:43;12.80;99.90
9837;DHT22;4957;51.412;6.724;2024-03-22T06:55:09;12.90;99.90
9837;DHT22;4957;51.412;6.724;2024-03-22T06:57:35;12.90;99.90
9837;DHT22;4957;51.412;6.724;2024-03-22T07:00:00;12.90;99.90
9837;DHT22;4957;51.412;6.724;2024-03-22T07:02:26;13.00;99.90
9837;DHT22;4957;51.412;6.724;2024-03-22T07:04:52;13.00;99.90
9837;DHT22;4957;51.412;6.724;2024-03-22T07:07:18;13.00;99.90
9837;DHT22;4957;51.412;6.724;2024-03-22T07:09:44;13.10;99.90
9837;DHT22;4957;51.412;6.724;2024-03-22T07:12:11;13.10;99.90
9837;DHT22;4957;51.412;6.724;2024-03-22T07:14:37;13.20;99.90
9837;DHT22;4957;51.412;6.724;2024-03-22T07:17:02;13.20;99.90
9837;DHT22;4957;51.412;6.724;2024-03-22T07:19:28;13.30;99.90
9837;DHT22;4957;51.412;6.724;2024-03-22T07:21:54;13.30;99.90
9837;DHT22;4957;51.412;6.724;2024-03-22T07:24:20;13.40;99.90
9837;DHT22;4957;51.412;6.724;2024-03-22T07:26:49;13.40;99.90
9837;DHT22;4957;51.412;6.724;2024-03-22T07:29:15;13.50;99.90
9837;DHT22;4957;51.412;6.724;2024-03-22T07:31:40;13.50;99.90
9837;DHT22;4957;51.412;6.724;2024-03-22T07:34:06;13.60;99.90
9837;DHT22;4957;51.412;6.724;2024-03-22T07:36:32;13.60;99.90
9837;DHT22;4957;51.412;6.724;2024-03-22T07:39:02;13.70;99.90
9837;DHT22;4957;51.412;6.724;2024-03-22T07:41:29;13.70;99.90
9837;DHT22;4957;51.412;6.724;2024-03-22T07:43:55;13.80;99.90
9837;DHT22;4957;51.412;6.724;2024-03-22T07:46:20;13.80;99.90
9837;DHT22;4957;51.412;6.724;2024-03-22T07:48:46;13.90;99.90
9837;DHT22;4957;51.412;6.724;2024-03-22T07:51:12;13.90;99.90
9837;DHT22;4957;51.412;6.724;2024-03-22T07:53:38;14.00;99.90
9837;DHT22;4957;51.412;6.724;2024-03-22T07:56:03;14.00;99.90
9837;DHT22;4957;51.412;6.724;2024-03-22T07:58:29;14.10;99.90
9837;DHT22;4957;51.412;6.724;2024-03-22T08:00:55;14.10;99.90
9837;DHT22;4957;51.412;6.724;2024-03-22T08:03:21;14.20;99.90
9837;DHT22;4957;51.412;6.724;2024-03-22T08:05:47;14.20;99.90
9837;DHT22;4957;51.412;6.724;2024-03-22T08:08:12;14.30;99.90
9837;DHT22;4957;51.412;6.724;2024-03-22T08:10:38;14.30;99.90
9837;DHT22;4957;51.412;6.724;2024-03-22T08:13:04;14.40;99.90
9837;DHT22;4957;51.412;6.724;2024-03-22T08:15:30;14.50;99.90
9837;DHT22;4957;51.412;6.724;2024-03-22T08:17:55;14.50;99.90
9837;DHT22;4957;51.412;6.724;2024-03-22T08:20:23;14.60;99.90
9837;DHT22;4957;51.412;6.724;2024-03-22T08:22:49;14.60;99.90
9837;DHT22;4957;51.412;6.724;2024-03-22T08:25:15;14.70;99.90
9837;DHT22;4957;51.412;6.724;2024-03-22T08:27:48;14.70;99.90
9837;DHT22;4957;51.412;6.724;2024-03-22T08:30:14;14.70;99.90
9837;DHT22;4957;51.412;6.724;2024-03-22T08:32:40;14.80;99.90
9837;DHT22;4957;51.412;6.724;2024-03-22T08:35:06;14.80;99.90
9837;DHT22;4957;51.412;6.724;2024-03-22T08:37:33;14.90;99.90
9837;DHT22;4957;51.412;6.724;2024-03-22T08:39:59;14.90;99.90
9837;DHT22;4957;51.412;6.724;2024-03-22T08:42:25;15.00;99.90
9837;DHT22;4957;51.412;6.724;2024-03-22T08:44:50;15.00;99.90
9837;DHT22;4957;51.412;6.724;2024-03-22T08:47:16;15.10;99.90
9837;DHT22;4957;51.412;6.724;2024-03-22T08:49:42;15.10;99.90
9837;DHT22;4957;51.412;6.724;2024-03-22T08:52:10;15.10;99.90
9837;DHT22;4957;51.412;6.724;2024-03-22T08:54:35;15.20;99.90
9837;DHT22;4957;51.412;6.724;2024-03-22T08:57:01;15.20;99.90
9837;DHT22;4957;51.412;6.724;2024-03-22T08:59:27;15.30;99.90
9837;DHT22;4957;51.412;6.724;2024-03-22T09:01:53;15.40;99.90
9837;DHT22;4957;51.412;6.724;2024-03-22T09:04:19;15.40;99.90
9837;DHT22;4957;51.412;6.724;2024-03-22T09:06:45;15.50;99.90
9837;DHT22;4957;51.412;6.724;2024-03-22T09:09:12;15.50;99.90
9837;DHT22;4957;51.412;6.724;2024-03-22T09:11:38;15.60;99.90
9837;DHT22;4957;51.412;6.724;2024-03-22T09:14:03;15.70;99.90
9837;DHT22;4957;51.412;6.724;2024-03-22T09:16:29;15.70;99.90
9837;DHT22;4957;51.412;6.724;2024-03-22T09:18:56;15.80;99.90
9837;DHT22;4957;51.412;6.724;2024-03-22T09:21:22;15.80;99.90
9837;DHT22;4957;51.412;6.724;2024-03-22T09:23:50;16.00;99.90
9837;DHT22;4957;51.412;6.724;2024-03-22T09:26:15;16.00;99.90
9837;DHT22;4957;51.412;6.724;2024-03-22T09:28:41;16.20;99.90
9837;DHT22;4957;51.412;6.724;2024-03-22T09:31:07;16.30;99.90
9837;DHT22;4957;51.412;6.724;2024-03-22T09:33:36;16.50;99.90
9837;DHT22;4957;51.412;6.724;2024-03-22T09:36:02;16.60;99.90
9837;DHT22;4957;51.412;6.724;2024-03-22T09:38:28;16.70;99.90
9837;DHT22;4957;51.412;6.724;2024-03-22T09:40:54;16.80;99.90
9837;DHT22;4957;51.412;6.724;2024-03-22T09:43:23;16.90;99.90
9837;DHT22;4957;51.412;6.724;2024-03-22T09:45:52;17.00;99.90
9837;DHT22;4957;51.412;6.724;2024-03-22T09:48:21;17.10;99.90
9837;DHT22;4957;51.412;6.724;2024-03-22T09:50:47;17.20;99.90
9837;DHT22;4957;51.412;6.724;2024-03-22T09:53:17;17.30;99.90
9837;DHT22;4957;51.412;6.724;2024-03-22T09:55:45;17.30;99.90
9837;DHT22;4957;51.412;6.724;2024-03-22T09:58:11;17.40;99.90
9837;DHT22;4957;51.412;6.724;2024-03-22T10:00:36;17.50;99.90
9837;DHT22;4957;51.412;6.724;2024-03-22T10:03:04;17.50;99.90
9837;DHT22;4957;51.412;6.724;2024-03-22T10:05:31;17.50;99.90
9837;DHT22;4957;51.412;6.724;2024-03-22T10:07:57;17.60;99.90
9837;DHT22;4957;51.412;6.724;2024-03-22T10:10:23;17.70;99.90
9837;DHT22;4957;51.412;6.724;2024-03-22T10:12:49;17.60;99.90
9837;DHT22;4957;51.412;6.724;2024-03-22T10:15:15;17.80;99.90
9837;DHT22;4957;51.412;6.724;2024-03-22T10:17:41;17.80;99.90
9837;DHT22;4957;51.412;6.724;2024-03-22T10:20:07;17.80;99.90
9837;DHT22;4957;51.412;6.724;2024-03-22T10:22:42;17.90;99.90
9837;DHT22;4957;51.412;6.724;2024-03-22T10:25:08;18.00;99.90
9837;DHT22;4957;51.412;6.724;2024-03-22T10:27:34;18.00;99.90
9837;DHT22;4957;51.412;6.724;2024-03-22T10:30:06;18.10;99.90
9837;DHT22;4957;51.412;6.724;2024-03-22T10:32:32;18.10;99.90
9837;DHT22;4957;51.412;6.724;2024-03-22T10:34:58;18.20;99.90
9837;DHT22;4957;51.412;6.724;2024-03-22T10:37:24;18.20;99.90
9837;DHT22;4957;51.412;6.724;2024-03-22T10:39:50;18.30;99.90
9837;DHT22;4957;51.412;6.724;2024-03-22T10:42:17;18.30;99.90
9837;DHT22;4957;51.412;6.724;2024-03-22T10:44:44;18.40;99.90
9837;DHT22;4957;51.412;6.724;2024-03-22T10:47:10;18.30;99.90
9837;DHT22;4957;51.412;6.724;2024-03-22T10:49:37;18.40;99.90
9837;DHT22;4957;51.412;6.724;2024-03-22T10:52:05;18.40;99.90
9837;DHT22;4957;51.412;6.724;2024-03-22T10:54:40;18.50;99.90
9837;DHT22;4957;51.412;6.724;2024-03-22T10:57:13;18.50;99.90
9837;DHT22;4957;51.412;6.724;2024-03-22T10:59:43;18.60;99.90
9837;DHT22;4957;51.412;6.724;2024-03-22T11:02:12;18.70;99.90
9837;DHT22;4957;51.412;6.724;2024-03-22T11:04:38;18.70;99.90
9837;DHT22;4957;51.412;6.724;2024-03-22T11:07:05;18.80;99.90
9837;DHT22;4957;51.412;6.724;2024-03-22T11:09:30;18.90;99.90
9837;DHT22;4957;51.412;6.724;2024-03-22T11:11:56;18.90;99.90
9837;DHT22;4957;51.412;6.724;2024-03-22T11:14:26;19.00;99.90
9837;DHT22;4957;51.412;6.724;2024-03-22T11:16:52;19.00;99.90
9837;DHT22;4957;51.412;6.724;2024-03-22T11:19:21;19.10;99.90
9837;DHT22;4957;51.412;6.724;2024-03-22T11:21:46;19.20;99.90
9837;DHT22;4957;51.412;6.724;2024-03-22T11:24:12;19.30;99.90
9837;DHT22;4957;51.412;6.724;2024-03-22T11:26:38;19.30;99.90
9837;DHT22;4957;51.412;6.724;2024-03-22T11:29:04;19.30;99.90
9837;DHT22;4957;51.412;6.724;2024-03-22T11:31:29;19.30;99.90
9837;DHT22;4957;51.412;6.724;2024-03-22T11:33:56;19.30;99.90
9837;DHT22;4957;51.412;6.724;2024-03-22T11:36:22;19.30;99.90
9837;DHT22;4957;51.412;6.724;2024-03-22T11:38:53;19.30;99.90
9837;DHT22;4957;51.412;6.724;2024-03-22T11:41:27;19.30;99.90
9837;DHT22;4957;51.412;6.724;2024-03-22T11:43:53;19.30;99.90
9837;DHT22;4957;51.412;6.724;2024-03-22T11:46:20;19.30;99.90
9837;DHT22;4957;51.412;6.724;2024-03-22T11:48:56;19.30;99.90
9837;DHT22;4957;51.412;6.724;2024-03-22T11:51:23;19.20;99.90
9837;DHT22;4957;51.412;6.724;2024-03-22T11:53:50;19.20;99.90
9837;DHT22;4957;51.412;6.724;2024-03-22T11:56:20;19.10;99.90
9837;DHT22;4957;51.412;6.724;2024-03-22T11:58:49;19.10;99.90
9837;DHT22;4957;51.412;6.724;2024-03-22T12:01:22;19.10;99.90
9837;DHT22;4957;51.412;6.724;2024-03-22T12:03:48;19.00;99.90
9837;DHT22;4957;51.412;6.724;2024-03-22T12:06:15;19.00;99.90
9837;DHT22;4957;51.412;6.724;2024-03-22T12:08:41;18.90;99.90
9837;DHT22;4957;51.412;6.724;2024-03-22T12:11:08;18.90;99.90
9837;DHT22;4957;51.412;6.724;2024-03-22T12:13:34;18.80;99.90
9837;DHT22;4957;51.412;6.724;2024-03-22T12:16:00;18.80;99.90
9837;DHT22;4957;51.412;6.724;2024-03-22T12:18:27;18.70;99.90
9837;DHT22;4957;51.412;6.724;2024-03-22T12:20:53;18.60;99.90
9837;DHT22;4957;51.412;6.724;2024-03-22T12:23:19;18.60;99.90
9837;DHT22;4957;51.412;6.724;2024-03-22T12:25:44;18.50;99.90
9837;DHT22;4957;51.412;6.724;2024-03-22T12:28:10;18.40;99.90
9837;DHT22;4957;51.412;6.724;2024-03-22T12:30:36;18.40;99.90
9837;DHT22;4957;51.412;6.724;2024-03-22T12:33:01;18.30;99.90
9837;DHT22;4957;51.412;6.724;2024-03-22T12:35:27;18.20;99.90
9837;DHT22;4957;51.412;6.724;2024-03-22T12:37:57;18.20;99.90
9837;DHT22;4957;51.412;6.724;2024-03-22T12:40:23;18.20;99.90
9837;DHT22;4957;51.412;6.724;2024-03-22T12:42:49;18.10;99.90
9837;DHT22;4957;51.412;6.724;2024-03-22T12:45:15;18.10;99.90
9837;DHT22;4957;51.412;6.724;2024-03-22T12:47:41;18.00;99.90
9837;DHT22;4957;51.412;6.724;2024-03-22T12:50:07;18.00;99.90
9837;DHT22;4957;51.412;6.724;2024-03-22T12:52:33;17.90;99.90
9837;DHT22;4957;51.412;6.724;2024-03-22T12:54:59;17.90;99.90
9837;DHT22;4957;51.412;6.724;2024-03-22T12:57:24;17.90;99.90
9837;DHT22;4957;51.412;6.724;2024-03-22T12:59:50;17.80;99.90
9837;DHT22;4957;51.412;6.724;2024-03-22T13:02:16;17.80;99.90
9837;DHT22;4957;51.412;6.724;2024-03-22T13:04:41;17.70;99.90
9837;DHT22;4957;51.412;6.724;2024-03-22T13:07:08;17.70;99.90
9837;DHT22;4957;51.412;6.724;2024-03-22T13:09:34;17.70;99.90
9837;DHT22;4957;51.412;6.724;2024-03-22T13:12:00;17.60;99.90
9837;DHT22;4957;51.412;6.724;2024-03-22T13:14:25;17.60;99.90
9837;DHT22;4957;51.412;6.724;2024-03-22T13:16:53;17.60;99.90
9837;DHT22;4957;51.412;6.724;2024-03-22T13:19:18;17.50;99.90
9837;DHT22;4957;51.412;6.724;2024-03-22T13:21:44;17.50;99.90
9837;DHT22;4957;51.412;6.724;2024-03-22T13:24:13;17.50;99.90
9837;DHT22;4957;51.412;6.724;2024-03-22T13:26:39;17.40;99.90
9837;DHT22;4957;51.412;6.724;2024-03-22T13:29:04;17.40;99.90
9837;DHT22;4957;51.412;6.724;2024-03-22T13:31:30;17.40;99.90
9837;DHT22;4957;51.412;6.724;2024-03-22T13:33:56;17.40;99.90
9837;DHT22;4957;51.412;6.724;2024-03-22T13:36:21;17.30;99.90
9837;DHT22;4957;51.412;6.724;2024-03-22T13:38:48;17.30;99.90
9837;DHT22;4957;51.412;6.724;2024-03-22T13:41:14;17.30;99.90
9837;DHT22;4957;51.412;6.724;2024-03-22T13:43:39;17.20;99.90
9837;DHT22;4957;51.412;6.724;2024-03-22T13:46:06;17.20;99.90
9837;DHT22;4957;51.412;6.724;2024-03-22T13:48:32;17.20;99.90
9837;DHT22;4957;51.412;6.724;2024-03-22T13:50:57;17.20;99.90
9837;DHT22;4957;51.412;6.724;2024-03-22T13:53:23;17.20;99.90
9837;DHT22;4957;51.412;6.724;2024-03-22T13:55:50;17.20;99.90
9837;DHT22;4957;51.412;6.724;2024-03-22T13:58:16;17.10;99.90
9837;DHT22;4957;51.412;6.724;2024-03-22T14:00:42;17.10;99.90
9837;DHT22;4957;51.412;6.724;2024-03-22T14:03:08;17.10;99.90
9837;DHT22;4957;51.412;6.724;2024-03-22T14:05:33;17.10;99.90
9837;DHT22;4957;51.412;6.724;2024-03-22T14:07:59;17.10;99.90
9837;DHT22;4957;51.412;6.724;2024-03-22T14:10:25;17.00;99.90
9837;DHT22;4957;51.412;6.724;2024-03-22T14:12:53;17.00;99.90
9837;DHT22;4957;51.412;6.724;2024-03-22T14:15:19;17.00;99.90
9837;DHT22;4957;51.412;6.724;2024-03-22T14:17:45;17.00;99.90
9837;DHT22;4957;51.412;6.724;2024-03-22T14:20:10;16.90;99.90
9837;DHT22;4957;51.412;6.724;2024-03-22T14:22:40;16.90;99.90
9837;DHT22;4957;51.412;6.724;2024-03-22T14:25:06;16.90;99.90
9837;DHT22;4957;51.412;6.724;2024-03-22T14:27:33;16.90;99.90
9837;DHT22;4957;51.412;6.724;2024-03-22T14:30:00;16.90;99.90
9837;DHT22;4957;51.412;6.724;2024-03-22T14:32:25;16.90;99.90
9837;DHT22;4957;51.412;6.724;2024-03-22T14:34:52;16.80;99.90
9837;DHT22;4957;51.412;6.724;2024-03-22T14:37:18;16.80;99.90
9837;DHT22;4957;51.412;6.724;2024-03-22T14:39:43;16.80;99.90
9837;DHT22;4957;51.412;6.724;2024-03-22T14:42:09;16.80;99.90
9837;DHT22;4957;51.412;6.724;2024-03-22T14:44:35;16.80;99.90
9837;DHT22;4957;51.412;6.724;2024-03-22T14:47:00;16.70;99.90
9837;DHT22;4957;51.412;6.724;2024-03-22T14:49:26;16.70;99.90
9837;DHT22;4957;51.412;6.724;2024-03-22T14:51:52;16.60;99.90
9837;DHT22;4957;51.412;6.724;2024-03-22T14:54:18;16.60;99.90
9837;DHT22;4957;51.412;6.724;2024-03-22T14:56:43;16.60;99.90
9837;DHT22;4957;51.412;6.724;2024-03-22T14:59:09;16.60;99.90
9837;DHT22;4957;51.412;6.724;2024-03-22T15:01:36;16.50;99.90
9837;DHT22;4957;51.412;6.724;2024-03-22T15:04:01;16.60;99.90
9837;DHT22;4957;51.412;6.724;2024-03-22T15:06:27;16.50;99.90
9837;DHT22;4957;51.412;6.724;2024-03-22T15:08:55;16.50;99.90
9837;DHT22;4957;51.412;6.724;2024-03-22T15:11:20;16.50;99.90
9837;DHT22;4957;51.412;6.724;2024-03-22T15:13:47;16.40;99.90
9837;DHT22;4957;51.412;6.724;2024-03-22T15:16:14;16.40;99.90
9837;DHT22;4957;51.412;6.724;2024-03-22T15:18:40;16.40;99.90
9837;DHT22;4957;51.412;6.724;2024-03-22T15:21:07;16.30;99.90
9837;DHT22;4957;51.412;6.724;2024-03-22T15:23:34;16.30;99.90
9837;DHT22;4957;51.412;6.724;2024-03-22T15:25:59;16.30;99.90
9837;DHT22;4957;51.412;6.724;2024-03-22T15:28:25;16.30;99.90
9837;DHT22;4957;51.412;6.724;2024-03-22T15:30:52;16.30;99.90
9837;DHT22;4957;51.412;6.724;2024-03-22T15:33:17;16.30;99.90
9837;DHT22;4957;51.412;6.724;2024-03-22T15:35:43;16.30;99.90
9837;DHT22;4957;51.412;6.724;2024-03-22T15:38:15;16.30;99.90
9837;DHT22;4957;51.412;6.724;2024-03-22T15:40:41;16.30;99.90
9837;DHT22;4957;51.412;6.724;2024-03-22T15:43:08;16.30;99.90
9837;DHT22;4957;51.412;6.724;2024-03-22T15:45:35;16.30;99.90
9837;DHT22;4957;51.412;6.724;2024-03-22T15:48:04;16.30;99.90
9837;DHT22;4957;51.412;6.724;2024-03-22T15:50:33;16.30;99.90
9837;DHT22;4957;51.412;6.724;2024-03-22T15:52:59;16.30;99.90
9837;DHT22;4957;51.412;6.724;2024-03-22T15:55:25;16.30;99.90
9837;DHT22;4957;51.412;6.724;2024-03-22T15:57:51;16.20;99.90